sensor_id;sensor_type;location;lat;lon;timestamp;temperature;humidity
7972;DHT22;4031;49.758;6.120;2023-07-13T00:00:04;14.40;99.90
7972;DHT22;4031;49.758;6.120;2023-07-13T00:02:36;14.40;99.90
7972;DHT22;4031;49.758;6.120;2023-07-13T00:05:02;14.40;99.90
7972;DHT22;4031;49.758;6.120;2023-07-13T00:07:29;14.50;99.90
7972;DHT22;4031;49.758;6.120;2023-07-13T00:09:56;14.50;99.90
7972;DHT22;4031;49.758;6.120;2023-07-13T00:12:36;14.50;99.90
7972;DHT22;4031;49.758;6.120;2023-07-13T00:15:15;14.60;99.90
7972;DHT22;4031;49.758;6.120;2023-07-13T00:17:51;14.60;99.90
7972;DHT22;4031;49.758;6.120;2023-07-13T00:20:23;14.60;99.90
7972;DHT22;4031;49.758;6.120;2023-07-13T00:22:51;14.60;99.90
7972;DHT22;4031;49.758;6.120;2023-07-13T00:25:20;14.60;99.90
7972;DHT22;4031;49.758;6.120;2023-07-13T00:27:47;14.60;99.90
7972;DHT22;4031;49.758;6.120;2023-07-13T00:30:14;14.70;99.90
7972;DHT22;4031;49.758;6.120;2023-07-13T00:32:40;14.60;99.90
7972;DHT22;4031;49.758;6.120;2023-07-13T00:35:07;14.60;99.90
7972;DHT22;4031;49.758;6.120;2023-07-13T00:37:33;14.60;99.90
7972;DHT22;4031;49.758;6.120;2023-07-13T00:40:02;14.60;99.90
7972;DHT22;4031;49.758;6.120;2023-07-13T00:42:29;14.70;99.90
7972;DHT22;4031;49.758;6.120;2023-07-13T00:47:51;14.70;99.90
7972;DHT22;4031;49.758;6.120;2023-07-13T00:50:18;14.70;99.90
7972;DHT22;4031;49.758;6.120;2023-07-13T00:52:48;14.70;99.90
7972;DHT22;4031;49.758;6.120;2023-07-13T00:55:17;14.70;99.90
7972;DHT22;4031;49.758;6.120;2023-07-13T00:57:44;14.50;99.90
7972;DHT22;4031;49.758;6.120;2023-07-13T01:00:10;14.50;99.90
7972;DHT22;4031;49.758;6.120;2023-07-13T01:02:44;14.50;99.90
7972;DHT22;4031;49.758;6.120;2023-07-13T01:05:13;14.40;99.90
7972;DHT22;4031;49.758;6.120;2023-07-13T01:07:43;14.40;99.90
7972;DHT22;4031;49.758;6.120;2023-07-13T01:10:13;14.30;99.90
7972;DHT22;4031;49.758;6.120;2023-07-13T01:12:39;14.30;99.90
7972;DHT22;4031;49.758;6.120;2023-07-13T01:15:32;14.40;99.90
7972;DHT22;4031;49.758;6.120;2023-07-13T01:18:26;14.30;99.90
7972;DHT22;4031;49.758;6.120;2023-07-13T01:21:02;14.40;99.90
7972;DHT22;4031;49.758;6.120;2023-07-13T01:23:31;14.40;99.90
7972;DHT22;4031;49.758;6.120;2023-07-13T01:25:58;14.40;99.90
7972;DHT22;4031;49.758;6.120;2023-07-13T01:28:25;14.40;99.90
7972;DHT22;4031;49.758;6.120;2023-07-13T01:30:57;14.40;99.90
7972;DHT22;4031;49.758;6.120;2023-07-13T01:33:24;14.40;99.90
7972;DHT22;4031;49.758;6.120;2023-07-13T01:35:50;14.40;99.90
7972;DHT22;4031;49.758;6.120;2023-07-13T01:38:20;14.50;99.90
7972;DHT22;4031;49.758;6.120;2023-07-13T01:40:48;14.50;99.90
7972;DHT22;4031;49.758;6.120;2023-07-13T01:43:13;14.50;99.90
7972;DHT22;4031;49.758;6.120;2023-07-13T01:45:40;14.50;99.90
7972;DHT22;4031;49.758;6.120;2023-07-13T01:48:05;14.50;99.90
7972;DHT22;4031;49.758;6.120;2023-07-13T01:50:34;14.40;99.90
7972;DHT22;4031;49.758;6.120;2023-07-13T01:53:00;14.40;99.90
7972;DHT22;4031;49.758;6.120;2023-07-13T01:55:26;14.40;99.90
7972;DHT22;4031;49.758;6.120;2023-07-13T01:57:51;14.40;99.90
7972;DHT22;4031;49.758;6.120;2023-07-13T02:00:17;14.50;99.90
7972;DHT22;4031;49.758;6.120;2023-07-13T02:02:43;14.40;99.90
7972;DHT22;4031;49.758;6.120;2023-07-13T02:05:10;14.40;99.90
7972;DHT22;4031;49.758;6.120;2023-07-13T02:07:37;14.40;99.90
7972;DHT22;4031;49.758;6.120;2023-07-13T02:10:03;14.40;99.90
7972;DHT22;4031;49.758;6.120;2023-07-13T02:12:29;14.30;99.90
7972;DHT22;4031;49.758;6.120;2023-07-13T02:14:55;14.40;99.90
7972;DHT22;4031;49.758;6.120;2023-07-13T02:17:21;14.30;99.90
7972;DHT22;4031;49.758;6.120;2023-07-13T02:19:47;14.30;99.90
7972;DHT22;4031;49.758;6.120;2023-07-13T02:22:12;14.20;99.90
7972;DHT22;4031;49.758;6.120;2023-07-13T02:24:38;14.20;99.90
7972;DHT22;4031;49.758;6.120;2023-07-13T02:27:04;14.20;99.90
7972;DHT22;4031;49.758;6.120;2023-07-13T02:29:30;14.10;99.90
7972;DHT22;4031;49.758;6.120;2023-07-13T02:31:56;14.00;99.90
7972;DHT22;4031;49.758;6.120;2023-07-13T02:34:21;13.90;99.90
7972;DHT22;4031;49.758;6.120;2023-07-13T02:36:47;13.90;99.90
7972;DHT22;4031;49.758;6.120;2023-07-13T02:39:13;13.80;99.90
7972;DHT22;4031;49.758;6.120;2023-07-13T02:41:39;13.70;99.90
7972;DHT22;4031;49.758;6.120;2023-07-13T02:44:05;13.60;99.90
7972;DHT22;4031;49.758;6.120;2023-07-13T02:46:32;13.50;99.90
7972;DHT22;4031;49.758;6.120;2023-07-13T02:49:00;13.40;99.90
7972;DHT22;4031;49.758;6.120;2023-07-13T02:51:26;13.40;99.90
7972;DHT22;4031;49.758;6.120;2023-07-13T02:53:51;13.30;99.90
7972;DHT22;4031;49.758;6.120;2023-07-13T02:56:22;13.30;99.90
7972;DHT22;4031;49.758;6.120;2023-07-13T02:58:50;13.20;99.90
7972;DHT22;4031;49.758;6.120;2023-07-13T03:01:16;13.20;99.90
7972;DHT22;4031;49.758;6.120;2023-07-13T03:03:46;13.20;99.90
7972;DHT22;4031;49.758;6.120;2023-07-13T03:06:13;13.10;99.90
7972;DHT22;4031;49.758;6.120;2023-07-13T03:08:39;13.10;99.90
7972;DHT22;4031;49.758;6.120;2023-07-13T03:11:12;13.10;99.90
7972;DHT22;4031;49.758;6.120;2023-07-13T03:13:41;13.00;99.90
7972;DHT22;4031;49.758;6.120;2023-07-13T03:16:08;13.00;99.90
7972;DHT22;4031;49.758;6.120;2023-07-13T03:18:35;13.00;99.90
7972;DHT22;4031;49.758;6.120;2023-07-13T03:21:02;13.00;99.90
7972;DHT22;4031;49.758;6.120;2023-07-13T03:23:28;13.10;99.90
7972;DHT22;4031;49.758;6.120;2023-07-13T03:26:12;13.10;99.90
7972;DHT22;4031;49.758;6.120;2023-07-13T03:28:39;13.10;99.90
7972;DHT22;4031;49.758;6.120;2023-07-13T03:31:17;13.10;99.90
7972;DHT22;4031;49.758;6.120;2023-07-13T03:33:45;13.00;99.90
7972;DHT22;4031;49.758;6.120;2023-07-13T03:36:17;12.90;99.90
7972;DHT22;4031;49.758;6.120;2023-07-13T03:38:50;12.80;99.90
7972;DHT22;4031;49.758;6.120;2023-07-13T03:41:18;12.70;99.90
7972;DHT22;4031;49.758;6.120;2023-07-13T03:43:44;12.70;99.90
7972;DHT22;4031;49.758;6.120;2023-07-13T03:46:10;12.60;99.90
7972;DHT22;4031;49.758;6.120;2023-07-13T03:48:36;12.50;99.90
7972;DHT22;4031;49.758;6.120;2023-07-13T03:51:02;12.50;99.90
7972;DHT22;4031;49.758;6.120;2023-07-13T03:53:28;12.40;99.90
7972;DHT22;4031;49.758;6.120;2023-07-13T03:55:53;12.40;99.90
7972;DHT22;4031;49.758;6.120;2023-07-13T03:58:30;12.40;99.90
7972;DHT22;4031;49.758;6.120;2023-07-13T04:00:58;12.30;99.90
7972;DHT22;4031;49.758;6.120;2023-07-13T04:03:25;12.30;99.90
7972;DHT22;4031;49.758;6.120;2023-07-13T04:05:53;12.40;99.90
7972;DHT22;4031;49.758;6.120;2023-07-13T04:08:20;12.40;99.90
7972;DHT22;4031;49.758;6.120;2023-07-13T04:10:46;12.30;99.90
7972;DHT22;4031;49.758;6.120;2023-07-13T04:13:11;12.40;99.90
7972;DHT22;4031;49.758;6.120;2023-07-13T04:15:38;12.30;99.90
7972;DHT22;4031;49.758;6.120;2023-07-13T04:18:04;12.30;99.90
7972;DHT22;4031;49.758;6.120;2023-07-13T04:20:30;12.30;99.90
7972;DHT22;4031;49.758;6.120;2023-07-13T04:22:55;12.30;99.90
7972;DHT22;4031;49.758;6.120;2023-07-13T04:25:22;12.30;99.90
7972;DHT22;4031;49.758;6.120;2023-07-13T04:27:49;12.30;99.90
7972;DHT22;4031;49.758;6.120;2023-07-13T04:30:15;12.30;99.90
7972;DHT22;4031;49.758;6.120;2023-07-13T04:32:41;12.30;99.90
7972;DHT22;4031;49.758;6.120;2023-07-13T04:35:06;12.20;99.90
7972;DHT22;4031;49.758;6.120;2023-07-13T04:37:32;12.20;99.90
7972;DHT22;4031;49.758;6.120;2023-07-13T04:39:58;12.20;99.90
7972;DHT22;4031;49.758;6.120;2023-07-13T04:42:24;12.20;99.90
7972;DHT22;4031;49.758;6.120;2023-07-13T04:44:50;12.40;99.90
7972;DHT22;4031;49.758;6.120;2023-07-13T04:47:17;12.40;99.90
7972;DHT22;4031;49.758;6.120;2023-07-13T04:49:44;12.40;99.90
7972;DHT22;4031;49.758;6.120;2023-07-13T04:52:10;12.50;99.90
7972;DHT22;4031;49.758;6.120;2023-07-13T04:54:37;12.50;99.90
7972;DHT22;4031;49.758;6.120;2023-07-13T04:57:04;12.60;99.90
7972;DHT22;4031;49.758;6.120;2023-07-13T04:59:34;12.70;99.90
7972;DHT22;4031;49.758;6.120;2023-07-13T05:02:00;12.80;99.90
7972;DHT22;4031;49.758;6.120;2023-07-13T05:04:27;12.80;99.90
7972;DHT22;4031;49.758;6.120;2023-07-13T05:06:52;13.00;99.90
7972;DHT22;4031;49.758;6.120;2023-07-13T05:09:18;13.10;99.90
7972;DHT22;4031;49.758;6.120;2023-07-13T05:11:44;13.30;99.90
7972;DHT22;4031;49.758;6.120;2023-07-13T05:14:10;13.40;99.90
7972;DHT22;4031;49.758;6.120;2023-07-13T05:16:37;13.60;99.90
7972;DHT22;4031;49.758;6.120;2023-07-13T05:19:03;13.70;99.90
7972;DHT22;4031;49.758;6.120;2023-07-13T05:21:28;13.90;99.90
7972;DHT22;4031;49.758;6.120;2023-07-13T05:23:54;14.10;99.90
7972;DHT22;4031;49.758;6.120;2023-07-13T05:26:20;14.20;99.90
7972;DHT22;4031;49.758;6.120;2023-07-13T05:28:46;14.40;99.90
7972;DHT22;4031;49.758;6.120;2023-07-13T05:31:12;14.50;99.90
7972;DHT22;4031;49.758;6.120;2023-07-13T05:33:39;14.70;99.90
7972;DHT22;4031;49.758;6.120;2023-07-13T05:36:05;14.80;99.90
7972;DHT22;4031;49.758;6.120;2023-07-13T05:38:32;14.90;99.90
7972;DHT22;4031;49.758;6.120;2023-07-13T05:40:58;15.10;99.90
7972;DHT22;4031;49.758;6.120;2023-07-13T05:43:24;15.30;99.90
7972;DHT22;4031;49.758;6.120;2023-07-13T05:45:54;15.40;99.90
7972;DHT22;4031;49.758;6.120;2023-07-13T05:48:20;15.50;99.90
7972;DHT22;4031;49.758;6.120;2023-07-13T05:50:46;15.60;99.90
7972;DHT22;4031;49.758;6.120;2023-07-13T05:53:12;15.80;99.90
7972;DHT22;4031;49.758;6.120;2023-07-13T05:55:42;15.90;99.90
7972;DHT22;4031;49.758;6.120;2023-07-13T05:58:08;16.10;99.90
7972;DHT22;4031;49.758;6.120;2023-07-13T06:00:34;16.30;99.90
7972;DHT22;4031;49.758;6.120;2023-07-13T06:03:00;16.40;99.90
7972;DHT22;4031;49.758;6.120;2023-07-13T06:05:25;16.60;99.90
7972;DHT22;4031;49.758;6.120;2023-07-13T06:07:52;16.80;99.90
7972;DHT22;4031;49.758;6.120;2023-07-13T06:10:18;17.00;99.90
7972;DHT22;4031;49.758;6.120;2023-07-13T06:12:43;17.20;99.90
7972;DHT22;4031;49.758;6.120;2023-07-13T06:15:09;17.50;99.90
7972;DHT22;4031;49.758;6.120;2023-07-13T06:17:35;18.00;99.90
7972;DHT22;4031;49.758;6.120;2023-07-13T06:20:01;18.60;99.90
7972;DHT22;4031;49.758;6.120;2023-07-13T06:22:27;19.30;99.90
7972;DHT22;4031;49.758;6.120;2023-07-13T06:24:52;20.20;99.90
7972;DHT22;4031;49.758;6.120;2023-07-13T06:27:18;20.80;99.90
7972;DHT22;4031;49.758;6.120;2023-07-13T06:29:44;21.30;99.90
7972;DHT22;4031;49.758;6.120;2023-07-13T06:32:10;21.90;99.90
7972;DHT22;4031;49.758;6.120;2023-07-13T06:34:36;22.10;99.90
7972;DHT22;4031;49.758;6.120;2023-07-13T06:37:02;22.10;99.90
7972;DHT22;4031;49.758;6.120;2023-07-13T06:39:28;22.20;99.90
7972;DHT22;4031;49.758;6.120;2023-07-13T06:41:53;22.10;99.90
7972;DHT22;4031;49.758;6.120;2023-07-13T06:44:19;21.90;99.90
7972;DHT22;4031;49.758;6.120;2023-07-13T06:46:45;22.10;99.90
7972;DHT22;4031;49.758;6.120;2023-07-13T06:49:10;22.40;99.90
7972;DHT22;4031;49.758;6.120;2023-07-13T06:51:36;23.20;99.90
7972;DHT22;4031;49.758;6.120;2023-07-13T06:54:02;23.70;99.90
7972;DHT22;4031;49.758;6.120;2023-07-13T06:56:28;23.90;99.90
7972;DHT22;4031;49.758;6.120;2023-07-13T06:58:54;24.50;99.90
7972;DHT22;4031;49.758;6.120;2023-07-13T07:01:19;25.20;99.90
7972;DHT22;4031;49.758;6.120;2023-07-13T07:03:45;25.90;99.90
7972;DHT22;4031;49.758;6.120;2023-07-13T07:06:15;26.50;99.90
7972;DHT22;4031;49.758;6.120;2023-07-13T07:08:43;26.80;99.90
7972;DHT22;4031;49.758;6.120;2023-07-13T07:11:16;27.20;99.90
7972;DHT22;4031;49.758;6.120;2023-07-13T07:13:43;27.60;99.90
7972;DHT22;4031;49.758;6.120;2023-07-13T07:16:09;28.40;99.90
7972;DHT22;4031;49.758;6.120;2023-07-13T07:18:34;29.50;99.90
7972;DHT22;4031;49.758;6.120;2023-07-13T07:21:00;29.80;99.90
7972;DHT22;4031;49.758;6.120;2023-07-13T07:23:26;29.20;99.90
7972;DHT22;4031;49.758;6.120;2023-07-13T07:25:52;28.50;99.90
7972;DHT22;4031;49.758;6.120;2023-07-13T07:28:18;27.70;99.90
7972;DHT22;4031;49.758;6.120;2023-07-13T07:30:45;26.90;99.90
7972;DHT22;4031;49.758;6.120;2023-07-13T07:33:11;26.10;99.90
7972;DHT22;4031;49.758;6.120;2023-07-13T07:35:37;25.70;99.90
7972;DHT22;4031;49.758;6.120;2023-07-13T07:38:03;26.10;99.90
7972;DHT22;4031;49.758;6.120;2023-07-13T07:40:29;26.80;99.90
7972;DHT22;4031;49.758;6.120;2023-07-13T07:42:55;28.00;99.90
7972;DHT22;4031;49.758;6.120;2023-07-13T07:45:21;29.00;99.90
7972;DHT22;4031;49.758;6.120;2023-07-13T07:47:47;29.00;99.90
7972;DHT22;4031;49.758;6.120;2023-07-13T07:50:13;28.50;99.90
7972;DHT22;4031;49.758;6.120;2023-07-13T07:52:39;28.40;99.90
7972;DHT22;4031;49.758;6.120;2023-07-13T07:55:06;28.00;99.90
7972;DHT22;4031;49.758;6.120;2023-07-13T07:57:33;27.30;99.90
7972;DHT22;4031;49.758;6.120;2023-07-13T07:59:59;27.30;99.80
7972;DHT22;4031;49.758;6.120;2023-07-13T08:02:25;27.70;99.40
7972;DHT22;4031;49.758;6.120;2023-07-13T08:04:51;27.70;99.30
7972;DHT22;4031;49.758;6.120;2023-07-13T08:07:18;27.80;98.50
7972;DHT22;4031;49.758;6.120;2023-07-13T08:09:43;28.60;97.10
7972;DHT22;4031;49.758;6.120;2023-07-13T08:12:09;29.50;95.70
7972;DHT22;4031;49.758;6.120;2023-07-13T08:14:35;30.50;94.30
7972;DHT22;4031;49.758;6.120;2023-07-13T08:17:01;31.20;91.80
7972;DHT22;4031;49.758;6.120;2023-07-13T08:19:26;31.40;86.40
7972;DHT22;4031;49.758;6.120;2023-07-13T08:21:52;31.70;86.30
7972;DHT22;4031;49.758;6.120;2023-07-13T08:24:18;32.30;80.60
7972;DHT22;4031;49.758;6.120;2023-07-13T08:26:45;32.70;76.10
7972;DHT22;4031;49.758;6.120;2023-07-13T08:29:11;32.90;73.00
7972;DHT22;4031;49.758;6.120;2023-07-13T08:31:37;33.10;74.40
7972;DHT22;4031;49.758;6.120;2023-07-13T08:34:03;33.30;67.80
7972;DHT22;4031;49.758;6.120;2023-07-13T08:36:29;33.30;65.60
7972;DHT22;4031;49.758;6.120;2023-07-13T08:38:55;33.10;63.80
7972;DHT22;4031;49.758;6.120;2023-07-13T08:41:21;32.40;63.00
7972;DHT22;4031;49.758;6.120;2023-07-13T08:43:51;32.20;60.40
7972;DHT22;4031;49.758;6.120;2023-07-13T08:46:26;32.20;60.70
7972;DHT22;4031;49.758;6.120;2023-07-13T08:49:08;32.50;61.20
7972;DHT22;4031;49.758;6.120;2023-07-13T08:51:48;32.60;58.70
7972;DHT22;4031;49.758;6.120;2023-07-13T08:54:32;32.30;59.60
7972;DHT22;4031;49.758;6.120;2023-07-13T08:57:11;32.50;61.10
7972;DHT22;4031;49.758;6.120;2023-07-13T08:59:38;32.50;59.20
7972;DHT22;4031;49.758;6.120;2023-07-13T09:04:59;32.50;58.30
7972;DHT22;4031;49.758;6.120;2023-07-13T09:08:02;32.70;58.00
7972;DHT22;4031;49.758;6.120;2023-07-13T09:10:59;32.20;57.90
7972;DHT22;4031;49.758;6.120;2023-07-13T09:16:10;31.60;59.20
7972;DHT22;4031;49.758;6.120;2023-07-13T09:18:49;32.10;59.30
7972;DHT22;4031;49.758;6.120;2023-07-13T09:21:20;32.40;57.40
7972;DHT22;4031;49.758;6.120;2023-07-13T09:23:53;32.50;57.70
7972;DHT22;4031;49.758;6.120;2023-07-13T09:26:23;32.40;55.50
7972;DHT22;4031;49.758;6.120;2023-07-13T09:28:57;32.30;56.50
7972;DHT22;4031;49.758;6.120;2023-07-13T09:31:42;32.40;57.90
7972;DHT22;4031;49.758;6.120;2023-07-13T09:34:13;31.80;57.80
7972;DHT22;4031;49.758;6.120;2023-07-13T09:36:39;32.00;59.10
7972;DHT22;4031;49.758;6.120;2023-07-13T09:39:10;31.90;57.60
7972;DHT22;4031;49.758;6.120;2023-07-13T09:41:54;32.10;58.10
7972;DHT22;4031;49.758;6.120;2023-07-13T09:44:38;32.00;57.70
7972;DHT22;4031;49.758;6.120;2023-07-13T09:47:22;31.70;57.60
7972;DHT22;4031;49.758;6.120;2023-07-13T09:50:15;31.70;56.30
7972;DHT22;4031;49.758;6.120;2023-07-13T09:52:45;31.40;56.70
7972;DHT22;4031;49.758;6.120;2023-07-13T09:55:37;31.30;57.00
7972;DHT22;4031;49.758;6.120;2023-07-13T09:58:22;31.40;57.70
7972;DHT22;4031;49.758;6.120;2023-07-13T10:00:58;31.40;56.90
7972;DHT22;4031;49.758;6.120;2023-07-13T10:03:31;31.30;56.70
7972;DHT22;4031;49.758;6.120;2023-07-13T10:06:19;30.60;58.20
7972;DHT22;4031;49.758;6.120;2023-07-13T10:08:48;30.10;58.30
7972;DHT22;4031;49.758;6.120;2023-07-13T10:11:20;30.10;57.50
7972;DHT22;4031;49.758;6.120;2023-07-13T10:13:55;30.40;59.00
7972;DHT22;4031;49.758;6.120;2023-07-13T10:16:25;30.20;58.80
7972;DHT22;4031;49.758;6.120;2023-07-13T10:19:19;30.20;58.10
7972;DHT22;4031;49.758;6.120;2023-07-13T10:22:00;30.20;58.50
7972;DHT22;4031;49.758;6.120;2023-07-13T10:24:55;30.10;58.50
7972;DHT22;4031;49.758;6.120;2023-07-13T10:27:34;29.60;58.90
7972;DHT22;4031;49.758;6.120;2023-07-13T10:30:20;29.20;60.20
7972;DHT22;4031;49.758;6.120;2023-07-13T10:32:49;29.20;60.00
7972;DHT22;4031;49.758;6.120;2023-07-13T10:35:17;28.80;60.00
7972;DHT22;4031;49.758;6.120;2023-07-13T10:38:03;29.10;57.40
7972;DHT22;4031;49.758;6.120;2023-07-13T10:40:37;29.10;58.20
7972;DHT22;4031;49.758;6.120;2023-07-13T10:43:13;29.40;58.10
7972;DHT22;4031;49.758;6.120;2023-07-13T10:45:45;29.30;59.20
7972;DHT22;4031;49.758;6.120;2023-07-13T10:48:15;28.90;59.00
7972;DHT22;4031;49.758;6.120;2023-07-13T10:50:43;28.90;58.60
7972;DHT22;4031;49.758;6.120;2023-07-13T10:53:28;28.10;58.70
7972;DHT22;4031;49.758;6.120;2023-07-13T10:56:06;27.90;60.90
7972;DHT22;4031;49.758;6.120;2023-07-13T10:58:45;28.60;60.10
7972;DHT22;4031;49.758;6.120;2023-07-13T11:01:16;29.30;59.40
7972;DHT22;4031;49.758;6.120;2023-07-13T11:08:56;29.10;58.50
7972;DHT22;4031;49.758;6.120;2023-07-13T11:16:43;28.40;59.60
7972;DHT22;4031;49.758;6.120;2023-07-13T11:24:49;26.90;61.30
7972;DHT22;4031;49.758;6.120;2023-07-13T11:27:28;26.70;61.30
7972;DHT22;4031;49.758;6.120;2023-07-13T11:33:18;27.10;60.60
7972;DHT22;4031;49.758;6.120;2023-07-13T11:36:02;26.80;63.10
7972;DHT22;4031;49.758;6.120;2023-07-13T11:38:39;27.00;64.20
7972;DHT22;4031;49.758;6.120;2023-07-13T11:41:20;27.60;60.30
7972;DHT22;4031;49.758;6.120;2023-07-13T11:43:53;28.00;59.60
7972;DHT22;4031;49.758;6.120;2023-07-13T11:46:21;27.60;61.20
7972;DHT22;4031;49.758;6.120;2023-07-13T11:48:52;27.10;61.90
7972;DHT22;4031;49.758;6.120;2023-07-13T11:51:27;26.60;62.30
7972;DHT22;4031;49.758;6.120;2023-07-13T11:53:56;26.30;64.50
7972;DHT22;4031;49.758;6.120;2023-07-13T11:56:27;26.10;64.80
7972;DHT22;4031;49.758;6.120;2023-07-13T11:58:56;26.00;62.80
7972;DHT22;4031;49.758;6.120;2023-07-13T12:01:31;25.90;63.20
7972;DHT22;4031;49.758;6.120;2023-07-13T12:04:03;25.80;63.20
7972;DHT22;4031;49.758;6.120;2023-07-13T12:06:31;25.40;63.40
7972;DHT22;4031;49.758;6.120;2023-07-13T12:09:08;25.00;64.90
7972;DHT22;4031;49.758;6.120;2023-07-13T12:11:40;24.70;66.00
7972;DHT22;4031;49.758;6.120;2023-07-13T12:14:15;24.50;67.80
7972;DHT22;4031;49.758;6.120;2023-07-13T12:16:43;24.40;69.20
7972;DHT22;4031;49.758;6.120;2023-07-13T12:19:28;24.60;70.10
7972;DHT22;4031;49.758;6.120;2023-07-13T12:21:56;24.60;66.00
7972;DHT22;4031;49.758;6.120;2023-07-13T12:24:23;25.00;68.10
7972;DHT22;4031;49.758;6.120;2023-07-13T12:27:02;25.70;66.70
7972;DHT22;4031;49.758;6.120;2023-07-13T12:29:32;26.20;65.40
7972;DHT22;4031;49.758;6.120;2023-07-13T12:31:59;26.40;65.00
7972;DHT22;4031;49.758;6.120;2023-07-13T12:34:25;26.30;63.10
7972;DHT22;4031;49.758;6.120;2023-07-13T12:42:19;25.60;67.80
7972;DHT22;4031;49.758;6.120;2023-07-13T12:44:49;25.40;66.40
7972;DHT22;4031;49.758;6.120;2023-07-13T12:47:15;25.50;66.60
7972;DHT22;4031;49.758;6.120;2023-07-13T12:49:55;25.70;68.70
7972;DHT22;4031;49.758;6.120;2023-07-13T12:52:27;25.90;66.20
7972;DHT22;4031;49.758;6.120;2023-07-13T12:55:10;25.80;66.50
7972;DHT22;4031;49.758;6.120;2023-07-13T12:57:53;25.70;68.80
7972;DHT22;4031;49.758;6.120;2023-07-13T13:00:32;25.70;68.00
7972;DHT22;4031;49.758;6.120;2023-07-13T13:03:17;25.70;69.00
7972;DHT22;4031;49.758;6.120;2023-07-13T13:05:48;25.80;69.80
7972;DHT22;4031;49.758;6.120;2023-07-13T13:08:14;26.10;70.70
7972;DHT22;4031;49.758;6.120;2023-07-13T13:10:40;26.30;71.60
7972;DHT22;4031;49.758;6.120;2023-07-13T13:13:05;26.60;69.60
7972;DHT22;4031;49.758;6.120;2023-07-13T13:15:31;27.10;69.40
7972;DHT22;4031;49.758;6.120;2023-07-13T13:17:58;27.90;69.70
7972;DHT22;4031;49.758;6.120;2023-07-13T13:20:24;28.20;68.10
7972;DHT22;4031;49.758;6.120;2023-07-13T13:22:51;28.70;67.80
7972;DHT22;4031;49.758;6.120;2023-07-13T13:25:18;28.60;66.80
7972;DHT22;4031;49.758;6.120;2023-07-13T13:27:44;28.20;66.50
7972;DHT22;4031;49.758;6.120;2023-07-13T13:30:16;27.90;68.00
7972;DHT22;4031;49.758;6.120;2023-07-13T13:32:45;28.20;65.60
7972;DHT22;4031;49.758;6.120;2023-07-13T13:35:16;28.10;66.10
7972;DHT22;4031;49.758;6.120;2023-07-13T13:37:43;27.20;66.00
7972;DHT22;4031;49.758;6.120;2023-07-13T13:40:18;27.30;66.40
7972;DHT22;4031;49.758;6.120;2023-07-13T13:42:45;28.30;66.50
7972;DHT22;4031;49.758;6.120;2023-07-13T13:45:11;28.80;66.20
7972;DHT22;4031;49.758;6.120;2023-07-13T13:47:38;28.90;65.80
7972;DHT22;4031;49.758;6.120;2023-07-13T13:50:16;29.20;65.20
7972;DHT22;4031;49.758;6.120;2023-07-13T13:52:44;29.60;66.00
7972;DHT22;4031;49.758;6.120;2023-07-13T13:55:17;29.20;65.30
7972;DHT22;4031;49.758;6.120;2023-07-13T13:57:45;29.20;65.30
7972;DHT22;4031;49.758;6.120;2023-07-13T14:00:12;29.70;63.10
7972;DHT22;4031;49.758;6.120;2023-07-13T14:02:41;29.60;62.70
7972;DHT22;4031;49.758;6.120;2023-07-13T14:05:12;29.80;62.60
7972;DHT22;4031;49.758;6.120;2023-07-13T14:07:39;30.00;62.50
7972;DHT22;4031;49.758;6.120;2023-07-13T14:10:17;29.80;60.90
7972;DHT22;4031;49.758;6.120;2023-07-13T14:12:47;29.30;61.30
7972;DHT22;4031;49.758;6.120;2023-07-13T14:15:24;29.10;57.80
7972;DHT22;4031;49.758;6.120;2023-07-13T14:17:52;28.80;59.00
7972;DHT22;4031;49.758;6.120;2023-07-13T14:20:21;29.20;59.30
7972;DHT22;4031;49.758;6.120;2023-07-13T14:22:49;29.20;60.30
7972;DHT22;4031;49.758;6.120;2023-07-13T14:25:17;28.90;59.30
7972;DHT22;4031;49.758;6.120;2023-07-13T14:27:45;28.10;60.50
7972;DHT22;4031;49.758;6.120;2023-07-13T14:30:19;28.10;62.20
7972;DHT22;4031;49.758;6.120;2023-07-13T14:32:46;28.00;59.90
7972;DHT22;4031;49.758;6.120;2023-07-13T14:35:17;28.10;58.80
7972;DHT22;4031;49.758;6.120;2023-07-13T14:37:45;28.70;60.10
7972;DHT22;4031;49.758;6.120;2023-07-13T14:40:21;28.80;58.70
7972;DHT22;4031;49.758;6.120;2023-07-13T14:42:50;29.00;60.10
7972;DHT22;4031;49.758;6.120;2023-07-13T14:45:18;28.70;59.70
7972;DHT22;4031;49.758;6.120;2023-07-13T14:47:46;28.10;57.90
7972;DHT22;4031;49.758;6.120;2023-07-13T14:50:18;28.20;60.50
7972;DHT22;4031;49.758;6.120;2023-07-13T14:52:55;28.30;58.60
7972;DHT22;4031;49.758;6.120;2023-07-13T14:55:21;28.50;58.60
7972;DHT22;4031;49.758;6.120;2023-07-13T14:57:47;28.60;59.20
7972;DHT22;4031;49.758;6.120;2023-07-13T15:00:15;29.00;59.60
7972;DHT22;4031;49.758;6.120;2023-07-13T15:02:45;28.70;58.30
7972;DHT22;4031;49.758;6.120;2023-07-13T15:05:15;28.60;58.60
7972;DHT22;4031;49.758;6.120;2023-07-13T15:07:43;28.40;58.20
7972;DHT22;4031;49.758;6.120;2023-07-13T15:10:14;28.10;59.20
7972;DHT22;4031;49.758;6.120;2023-07-13T15:12:40;28.10;57.80
7972;DHT22;4031;49.758;6.120;2023-07-13T15:15:06;27.90;58.50
7972;DHT22;4031;49.758;6.120;2023-07-13T15:17:38;27.50;58.50
7972;DHT22;4031;49.758;6.120;2023-07-13T15:20:26;27.50;59.80
7972;DHT22;4031;49.758;6.120;2023-07-13T15:22:53;27.70;59.60
7972;DHT22;4031;49.758;6.120;2023-07-13T15:25:22;27.90;59.80
7972;DHT22;4031;49.758;6.120;2023-07-13T15:27:50;27.70;58.90
7972;DHT22;4031;49.758;6.120;2023-07-13T15:30:17;27.60;59.20
7972;DHT22;4031;49.758;6.120;2023-07-13T15:32:44;27.90;59.20
7972;DHT22;4031;49.758;6.120;2023-07-13T15:35:21;28.30;59.50
7972;DHT22;4031;49.758;6.120;2023-07-13T15:37:50;27.90;58.90
7972;DHT22;4031;49.758;6.120;2023-07-13T15:40:16;27.70;59.20
7972;DHT22;4031;49.758;6.120;2023-07-13T15:42:43;28.00;60.80
7972;DHT22;4031;49.758;6.120;2023-07-13T15:45:19;28.30;58.60
7972;DHT22;4031;49.758;6.120;2023-07-13T15:47:47;28.10;59.40
7972;DHT22;4031;49.758;6.120;2023-07-13T15:50:22;27.50;60.20
7972;DHT22;4031;49.758;6.120;2023-07-13T15:52:53;27.00;60.40
7972;DHT22;4031;49.758;6.120;2023-07-13T15:55:21;26.80;63.00
7972;DHT22;4031;49.758;6.120;2023-07-13T15:57:48;26.90;61.60
7972;DHT22;4031;49.758;6.120;2023-07-13T16:00:26;26.60;61.00
7972;DHT22;4031;49.758;6.120;2023-07-13T16:02:53;26.50;63.70
7972;DHT22;4031;49.758;6.120;2023-07-13T16:05:20;26.30;63.50
7972;DHT22;4031;49.758;6.120;2023-07-13T16:07:49;26.10;62.80
7972;DHT22;4031;49.758;6.120;2023-07-13T16:10:22;26.30;62.60
7972;DHT22;4031;49.758;6.120;2023-07-13T16:12:52;26.80;64.00
7972;DHT22;4031;49.758;6.120;2023-07-13T16:15:21;27.40;60.80
7972;DHT22;4031;49.758;6.120;2023-07-13T16:17:48;27.90;61.00
7972;DHT22;4031;49.758;6.120;2023-07-13T16:20:15;27.80;59.70
7972;DHT22;4031;49.758;6.120;2023-07-13T16:22:44;27.20;61.00
7972;DHT22;4031;49.758;6.120;2023-07-13T16:25:17;26.60;63.10
7972;DHT22;4031;49.758;6.120;2023-07-13T16:27:47;26.50;63.50
7972;DHT22;4031;49.758;6.120;2023-07-13T16:30:18;26.10;63.50
7972;DHT22;4031;49.758;6.120;2023-07-13T16:32:49;26.00;66.00
7972;DHT22;4031;49.758;6.120;2023-07-13T16:35:26;25.70;64.70
7972;DHT22;4031;49.758;6.120;2023-07-13T16:37:53;25.60;65.90
7972;DHT22;4031;49.758;6.120;2023-07-13T16:40:24;25.50;67.30
7972;DHT22;4031;49.758;6.120;2023-07-13T16:42:55;25.30;67.30
7972;DHT22;4031;49.758;6.120;2023-07-13T16:45:23;25.20;67.90
7972;DHT22;4031;49.758;6.120;2023-07-13T16:47:54;25.00;67.70
7972;DHT22;4031;49.758;6.120;2023-07-13T16:50:23;24.90;67.60